sensor_id;sensor_type;location;lat;lon;timestamp;P1;durP1;ratioP1;P2;durP2;ratioP2
19111;SDS011;9688;51.906;8.376;2023-01-04T00:00:26;2.93;;;1.60;;
19111;SDS011;9688;51.906;8.376;2023-01-04T00:03:12;2.77;;;1.67;;
19111;SDS011;9688;51.906;8.376;2023-01-04T00:05:59;2.83;;;1.70;;
19111;SDS011;9688;51.906;8.376;2023-01-04T00:08:47;8.60;;;1.67;;
19111;SDS011;9688;51.906;8.376;2023-01-04T00:11:33;4.57;;;1.80;;
19111;SDS011;9688;51.906;8.376;2023-01-04T00:14:19;5.73;;;1.60;;
19111;SDS011;9688;51.906;8.376;2023-01-04T00:17:04;3.47;;;1.73;;
19111;SDS011;9688;51.906;8.376;2023-01-04T00:19:49;5.60;;;2.20;;
19111;SDS011;9688;51.906;8.376;2023-01-04T00:22:36;3.37;;;1.50;;
19111;SDS011;9688;51.906;8.376;2023-01-04T00:25:22;6.67;;;2.50;;
19111;SDS011;9688;51.906;8.376;2023-01-04T00:28:08;4.30;;;1.83;;
19111;SDS011;9688;51.906;8.376;2023-01-04T00:30:53;1.67;;;1.57;;
19111;SDS011;9688;51.906;8.376;2023-01-04T00:33:39;4.03;;;1.50;;
19111;SDS011;9688;51.906;8.376;2023-01-04T00:36:26;6.17;;;1.53;;
19111;SDS011;9688;51.906;8.376;2023-01-04T00:39:14;6.13;;;1.70;;
19111;SDS011;9688;51.906;8.376;2023-01-04T00:42:00;2.47;;;1.57;;
19111;SDS011;9688;51.906;8.376;2023-01-04T00:44:48;1.50;;;1.40;;
19111;SDS011;9688;51.906;8.376;2023-01-04T00:47:34;7.13;;;1.80;;
19111;SDS011;9688;51.906;8.376;2023-01-04T00:50:19;2.30;;;1.70;;
19111;SDS011;9688;51.906;8.376;2023-01-04T00:53:05;1.83;;;1.30;;
19111;SDS011;9688;51.906;8.376;2023-01-04T00:55:57;4.37;;;1.57;;
19111;SDS011;9688;51.906;8.376;2023-01-04T00:58:43;5.07;;;1.80;;
19111;SDS011;9688;51.906;8.376;2023-01-04T01:01:29;2.10;;;1.43;;
19111;SDS011;9688;51.906;8.376;2023-01-04T01:04:16;3.93;;;1.50;;
19111;SDS011;9688;51.906;8.376;2023-01-04T01:07:03;4.37;;;2.00;;
19111;SDS011;9688;51.906;8.376;2023-01-04T01:09:48;2.87;;;1.40;;
19111;SDS011;9688;51.906;8.376;2023-01-04T01:12:35;3.47;;;1.53;;
19111;SDS011;9688;51.906;8.376;2023-01-04T01:15:21;8.43;;;1.53;;
19111;SDS011;9688;51.906;8.376;2023-01-04T01:18:07;3.97;;;1.57;;
19111;SDS011;9688;51.906;8.376;2023-01-04T01:20:52;4.47;;;1.87;;
19111;SDS011;9688;51.906;8.376;2023-01-04T01:23:37;6.67;;;1.67;;
19111;SDS011;9688;51.906;8.376;2023-01-04T01:26:24;3.70;;;1.40;;
19111;SDS011;9688;51.906;8.376;2023-01-04T01:29:11;11.33;;;2.23;;
19111;SDS011;9688;51.906;8.376;2023-01-04T01:31:56;4.17;;;1.50;;
19111;SDS011;9688;51.906;8.376;2023-01-04T01:34:42;2.57;;;1.47;;
19111;SDS011;9688;51.906;8.376;2023-01-04T01:37:28;4.83;;;1.90;;
19111;SDS011;9688;51.906;8.376;2023-01-04T01:40:14;4.57;;;1.40;;
19111;SDS011;9688;51.906;8.376;2023-01-04T01:43:00;1.40;;;1.20;;
19111;SDS011;9688;51.906;8.376;2023-01-04T01:45:47;3.03;;;1.53;;
19111;SDS011;9688;51.906;8.376;2023-01-04T01:48:35;6.17;;;1.77;;
19111;SDS011;9688;51.906;8.376;2023-01-04T01:51:22;4.13;;;1.20;;
19111;SDS011;9688;51.906;8.376;2023-01-04T01:54:09;5.03;;;1.37;;
19111;SDS011;9688;51.906;8.376;2023-01-04T01:56:59;3.57;;;1.30;;
19111;SDS011;9688;51.906;8.376;2023-01-04T01:59:47;2.20;;;1.20;;
19111;SDS011;9688;51.906;8.376;2023-01-04T02:02:36;2.80;;;1.57;;
19111;SDS011;9688;51.906;8.376;2023-01-04T02:05:25;4.30;;;1.33;;
19111;SDS011;9688;51.906;8.376;2023-01-04T02:08:12;3.87;;;1.77;;
19111;SDS011;9688;51.906;8.376;2023-01-04T02:10:59;4.63;;;1.30;;
19111;SDS011;9688;51.906;8.376;2023-01-04T02:13:44;2.80;;;1.50;;
19111;SDS011;9688;51.906;8.376;2023-01-04T02:16:52;6.53;;;1.40;;
19111;SDS011;9688;51.906;8.376;2023-01-04T02:20:00;4.20;;;1.67;;
19111;SDS011;9688;51.906;8.376;2023-01-04T02:23:17;3.10;;;1.27;;
19111;SDS011;9688;51.906;8.376;2023-01-04T02:32:58;2.90;;;1.30;;
19111;SDS011;9688;51.906;8.376;2023-01-04T02:35:57;2.43;;;1.50;;
19111;SDS011;9688;51.906;8.376;2023-01-04T02:38:56;2.87;;;1.23;;
19111;SDS011;9688;51.906;8.376;2023-01-04T02:41:49;5.20;;;1.70;;
19111;SDS011;9688;51.906;8.376;2023-01-04T02:44:42;5.23;;;1.67;;
19111;SDS011;9688;51.906;8.376;2023-01-04T02:47:36;3.70;;;1.60;;
19111;SDS011;9688;51.906;8.376;2023-01-04T02:50:50;3.47;;;1.70;;
19111;SDS011;9688;51.906;8.376;2023-01-04T02:53:37;4.93;;;1.53;;
19111;SDS011;9688;51.906;8.376;2023-01-04T02:56:28;4.83;;;1.30;;
19111;SDS011;9688;51.906;8.376;2023-01-04T02:59:27;2.43;;;1.40;;
19111;SDS011;9688;51.906;8.376;2023-01-04T03:02:29;5.03;;;1.50;;
19111;SDS011;9688;51.906;8.376;2023-01-04T03:05:48;3.67;;;1.53;;
19111;SDS011;9688;51.906;8.376;2023-01-04T03:09:01;6.30;;;1.80;;
19111;SDS011;9688;51.906;8.376;2023-01-04T03:11:54;6.20;;;1.53;;
19111;SDS011;9688;51.906;8.376;2023-01-04T03:15:02;4.03;;;2.10;;
19111;SDS011;9688;51.906;8.376;2023-01-04T03:17:54;2.03;;;1.60;;
19111;SDS011;9688;51.906;8.376;2023-01-04T03:20:43;4.43;;;1.70;;
19111;SDS011;9688;51.906;8.376;2023-01-04T03:23:34;4.53;;;2.33;;
19111;SDS011;9688;51.906;8.376;2023-01-04T03:26:40;2.30;;;1.50;;
19111;SDS011;9688;51.906;8.376;2023-01-04T03:29:46;4.87;;;1.60;;
19111;SDS011;9688;51.906;8.376;2023-01-04T03:32:56;6.30;;;1.87;;
19111;SDS011;9688;51.906;8.376;2023-01-04T03:36:05;5.93;;;2.40;;
19111;SDS011;9688;51.906;8.376;2023-01-04T03:39:02;5.90;;;1.50;;
19111;SDS011;9688;51.906;8.376;2023-01-04T03:42:14;4.60;;;1.60;;
19111;SDS011;9688;51.906;8.376;2023-01-04T03:45:22;4.63;;;2.13;;
19111;SDS011;9688;51.906;8.376;2023-01-04T03:48:30;4.77;;;1.97;;
19111;SDS011;9688;51.906;8.376;2023-01-04T03:51:21;5.93;;;1.80;;
19111;SDS011;9688;51.906;8.376;2023-01-04T03:54:13;3.40;;;1.70;;
19111;SDS011;9688;51.906;8.376;2023-01-04T03:57:04;2.53;;;1.40;;
19111;SDS011;9688;51.906;8.376;2023-01-04T03:59:52;2.13;;;1.53;;
19111;SDS011;9688;51.906;8.376;2023-01-04T04:02:43;1.83;;;1.70;;
19111;SDS011;9688;51.906;8.376;2023-01-04T04:05:30;3.60;;;1.50;;
19111;SDS011;9688;51.906;8.376;2023-01-04T04:08:33;4.70;;;1.60;;
19111;SDS011;9688;51.906;8.376;2023-01-04T04:11:20;1.83;;;1.40;;
19111;SDS011;9688;51.906;8.376;2023-01-04T04:14:15;3.13;;;1.30;;
19111;SDS011;9688;51.906;8.376;2023-01-04T04:17:00;3.00;;;1.40;;
19111;SDS011;9688;51.906;8.376;2023-01-04T04:19:45;2.07;;;1.87;;
19111;SDS011;9688;51.906;8.376;2023-01-04T04:22:31;1.10;;;1.10;;
19111;SDS011;9688;51.906;8.376;2023-01-04T04:25:17;3.67;;;1.47;;
19111;SDS011;9688;51.906;8.376;2023-01-04T04:28:04;1.63;;;1.07;;
19111;SDS011;9688;51.906;8.376;2023-01-04T04:30:50;1.83;;;1.27;;
19111;SDS011;9688;51.906;8.376;2023-01-04T04:33:36;4.23;;;1.00;;
19111;SDS011;9688;51.906;8.376;2023-01-04T04:36:22;1.17;;;1.00;;
19111;SDS011;9688;51.906;8.376;2023-01-04T04:39:09;0.93;;;0.90;;
19111;SDS011;9688;51.906;8.376;2023-01-04T04:41:55;1.00;;;1.00;;
19111;SDS011;9688;51.906;8.376;2023-01-04T04:44:41;1.33;;;0.83;;
19111;SDS011;9688;51.906;8.376;2023-01-04T04:47:27;0.80;;;0.80;;
19111;SDS011;9688;51.906;8.376;2023-01-04T04:50:16;2.17;;;0.77;;
19111;SDS011;9688;51.906;8.376;2023-01-04T04:53:01;0.80;;;0.70;;
19111;SDS011;9688;51.906;8.376;2023-01-04T04:55:49;1.00;;;0.80;;
19111;SDS011;9688;51.906;8.376;2023-01-04T04:58:34;1.73;;;1.03;;
19111;SDS011;9688;51.906;8.376;2023-01-04T05:01:21;0.70;;;0.70;;
19111;SDS011;9688;51.906;8.376;2023-01-04T05:04:07;3.60;;;2.47;;
19111;SDS011;9688;51.906;8.376;2023-01-04T05:06:57;2.23;;;0.80;;
19111;SDS011;9688;51.906;8.376;2023-01-04T05:09:42;1.03;;;0.83;;
19111;SDS011;9688;51.906;8.376;2023-01-04T05:12:31;1.10;;;0.80;;
19111;SDS011;9688;51.906;8.376;2023-01-04T05:15:35;1.37;;;0.70;;
19111;SDS011;9688;51.906;8.376;2023-01-04T05:18:24;0.73;;;0.73;;
19111;SDS011;9688;51.906;8.376;2023-01-04T05:21:09;1.00;;;0.90;;
19111;SDS011;9688;51.906;8.376;2023-01-04T05:23:55;1.87;;;0.80;;
19111;SDS011;9688;51.906;8.376;2023-01-04T05:26:40;1.27;;;1.00;;
19111;SDS011;9688;51.906;8.376;2023-01-04T05:29:26;0.70;;;0.70;;
19111;SDS011;9688;51.906;8.376;2023-01-04T05:32:29;1.67;;;0.60;;
19111;SDS011;9688;51.906;8.376;2023-01-04T05:35:16;0.80;;;0.80;;
19111;SDS011;9688;51.906;8.376;2023-01-04T05:38:02;0.80;;;0.80;;
19111;SDS011;9688;51.906;8.376;2023-01-04T05:40:48;2.20;;;0.60;;
19111;SDS011;9688;51.906;8.376;2023-01-04T05:43:34;1.60;;;0.70;;
19111;SDS011;9688;51.906;8.376;2023-01-04T05:46:19;1.17;;;0.70;;
19111;SDS011;9688;51.906;8.376;2023-01-04T05:49:04;1.13;;;0.60;;
19111;SDS011;9688;51.906;8.376;2023-01-04T05:51:51;1.00;;;0.90;;
19111;SDS011;9688;51.906;8.376;2023-01-04T05:54:37;2.57;;;0.90;;
19111;SDS011;9688;51.906;8.376;2023-01-04T05:57:22;0.80;;;0.80;;
19111;SDS011;9688;51.906;8.376;2023-01-04T06:00:08;0.80;;;0.80;;
19111;SDS011;9688;51.906;8.376;2023-01-04T06:02:55;1.03;;;0.80;;
19111;SDS011;9688;51.906;8.376;2023-01-04T06:05:41;1.17;;;0.80;;
19111;SDS011;9688;51.906;8.376;2023-01-04T06:08:28;1.20;;;0.57;;
19111;SDS011;9688;51.906;8.376;2023-01-04T06:11:13;0.77;;;0.77;;
19111;SDS011;9688;51.906;8.376;2023-01-04T06:13:59;0.60;;;0.60;;
19111;SDS011;9688;51.906;8.376;2023-01-04T06:16:45;1.53;;;0.80;;
19111;SDS011;9688;51.906;8.376;2023-01-04T06:19:30;3.90;;;1.00;;
19111;SDS011;9688;51.906;8.376;2023-01-04T06:22:16;0.90;;;0.90;;
19111;SDS011;9688;51.906;8.376;2023-01-04T06:25:06;0.90;;;0.90;;
19111;SDS011;9688;51.906;8.376;2023-01-04T06:27:53;0.97;;;0.80;;
19111;SDS011;9688;51.906;8.376;2023-01-04T06:30:39;2.27;;;0.90;;
19111;SDS011;9688;51.906;8.376;2023-01-04T06:33:24;0.80;;;0.80;;
19111;SDS011;9688;51.906;8.376;2023-01-04T06:36:10;0.70;;;0.70;;
19111;SDS011;9688;51.906;8.376;2023-01-04T06:38:55;2.00;;;0.80;;
19111;SDS011;9688;51.906;8.376;2023-01-04T06:41:43;1.70;;;1.00;;
19111;SDS011;9688;51.906;8.376;2023-01-04T06:44:28;1.50;;;0.90;;
19111;SDS011;9688;51.906;8.376;2023-01-04T06:47:14;1.73;;;0.87;;
19111;SDS011;9688;51.906;8.376;2023-01-04T06:50:00;1.17;;;0.80;;
19111;SDS011;9688;51.906;8.376;2023-01-04T06:52:50;0.93;;;0.90;;
19111;SDS011;9688;51.906;8.376;2023-01-04T06:55:35;0.73;;;0.73;;
19111;SDS011;9688;51.906;8.376;2023-01-04T06:58:22;1.50;;;0.97;;
19111;SDS011;9688;51.906;8.376;2023-01-04T07:01:08;0.90;;;0.90;;
19111;SDS011;9688;51.906;8.376;2023-01-04T07:03:53;1.33;;;1.10;;
19111;SDS011;9688;51.906;8.376;2023-01-04T07:06:39;0.80;;;0.80;;
19111;SDS011;9688;51.906;8.376;2023-01-04T07:09:26;1.43;;;1.10;;
19111;SDS011;9688;51.906;8.376;2023-01-04T07:12:14;2.03;;;1.00;;
19111;SDS011;9688;51.906;8.376;2023-01-04T07:15:01;0.90;;;0.90;;
19111;SDS011;9688;51.906;8.376;2023-01-04T07:17:46;2.20;;;0.97;;
19111;SDS011;9688;51.906;8.376;2023-01-04T07:20:33;0.60;;;0.60;;
19111;SDS011;9688;51.906;8.376;2023-01-04T07:23:18;1.43;;;0.80;;
19111;SDS011;9688;51.906;8.376;2023-01-04T07:26:04;2.10;;;1.00;;
19111;SDS011;9688;51.906;8.376;2023-01-04T07:28:49;0.70;;;0.70;;
19111;SDS011;9688;51.906;8.376;2023-01-04T07:31:54;0.93;;;0.93;;
19111;SDS011;9688;51.906;8.376;2023-01-04T07:34:41;2.20;;;1.00;;
19111;SDS011;9688;51.906;8.376;2023-01-04T07:37:26;1.00;;;1.00;;
19111;SDS011;9688;51.906;8.376;2023-01-04T07:40:15;0.90;;;0.90;;
19111;SDS011;9688;51.906;8.376;2023-01-04T07:43:00;1.00;;;1.00;;
19111;SDS011;9688;51.906;8.376;2023-01-04T07:45:46;0.90;;;0.90;;
19111;SDS011;9688;51.906;8.376;2023-01-04T07:48:32;1.37;;;0.83;;
19111;SDS011;9688;51.906;8.376;2023-01-04T07:51:19;0.93;;;0.93;;
19111;SDS011;9688;51.906;8.376;2023-01-04T07:54:06;0.87;;;0.87;;
19111;SDS011;9688;51.906;8.376;2023-01-04T07:56:54;3.20;;;1.17;;
19111;SDS011;9688;51.906;8.376;2023-01-04T07:59:40;1.23;;;1.00;;
19111;SDS011;9688;51.906;8.376;2023-01-04T08:02:28;1.00;;;0.97;;
19111;SDS011;9688;51.906;8.376;2023-01-04T08:05:16;2.67;;;0.83;;
19111;SDS011;9688;51.906;8.376;2023-01-04T08:08:02;1.67;;;0.80;;
19111;SDS011;9688;51.906;8.376;2023-01-04T08:10:48;0.93;;;0.90;;
19111;SDS011;9688;51.906;8.376;2023-01-04T08:13:34;2.73;;;2.17;;
19111;SDS011;9688;51.906;8.376;2023-01-04T08:16:20;1.63;;;1.27;;
19111;SDS011;9688;51.906;8.376;2023-01-04T08:19:10;1.23;;;0.90;;
19111;SDS011;9688;51.906;8.376;2023-01-04T08:21:59;2.13;;;1.20;;
19111;SDS011;9688;51.906;8.376;2023-01-04T08:24:45;2.13;;;1.00;;
19111;SDS011;9688;51.906;8.376;2023-01-04T08:27:30;0.87;;;0.87;;
19111;SDS011;9688;51.906;8.376;2023-01-04T08:30:16;2.67;;;2.47;;
19111;SDS011;9688;51.906;8.376;2023-01-04T08:33:11;5.40;;;2.03;;
19111;SDS011;9688;51.906;8.376;2023-01-04T08:36:05;1.40;;;1.40;;
19111;SDS011;9688;51.906;8.376;2023-01-04T08:38:53;1.20;;;1.20;;
19111;SDS011;9688;51.906;8.376;2023-01-04T08:41:40;1.00;;;1.00;;
19111;SDS011;9688;51.906;8.376;2023-01-04T08:44:34;1.53;;;0.80;;
19111;SDS011;9688;51.906;8.376;2023-01-04T08:47:20;2.10;;;1.03;;
19111;SDS011;9688;51.906;8.376;2023-01-04T08:50:06;0.93;;;0.93;;
19111;SDS011;9688;51.906;8.376;2023-01-04T08:52:55;1.70;;;1.20;;
19111;SDS011;9688;51.906;8.376;2023-01-04T08:55:42;0.80;;;0.80;;
19111;SDS011;9688;51.906;8.376;2023-01-04T08:58:33;0.80;;;0.80;;
19111;SDS011;9688;51.906;8.376;2023-01-04T09:01:21;1.80;;;0.80;;
19111;SDS011;9688;51.906;8.376;2023-01-04T09:04:06;0.80;;;0.80;;
19111;SDS011;9688;51.906;8.376;2023-01-04T09:06:52;0.80;;;0.80;;
19111;SDS011;9688;51.906;8.376;2023-01-04T09:09:38;0.83;;;0.83;;
19111;SDS011;9688;51.906;8.376;2023-01-04T09:12:25;2.07;;;0.97;;
19111;SDS011;9688;51.906;8.376;2023-01-04T09:15:11;0.90;;;0.90;;
19111;SDS011;9688;51.906;8.376;2023-01-04T09:17:57;1.07;;;1.07;;
19111;SDS011;9688;51.906;8.376;2023-01-04T09:20:43;1.20;;;1.20;;
19111;SDS011;9688;51.906;8.376;2023-01-04T09:23:29;0.97;;;0.90;;
19111;SDS011;9688;51.906;8.376;2023-01-04T09:26:17;1.20;;;1.10;;
19111;SDS011;9688;51.906;8.376;2023-01-04T09:29:07;1.60;;;1.00;;
19111;SDS011;9688;51.906;8.376;2023-01-04T09:31:54;2.77;;;2.67;;
19111;SDS011;9688;51.906;8.376;2023-01-04T09:34:40;7.23;;;6.73;;
19111;SDS011;9688;51.906;8.376;2023-01-04T09:37:26;2.07;;;1.33;;
19111;SDS011;9688;51.906;8.376;2023-01-04T09:40:17;0.93;;;0.90;;
19111;SDS011;9688;51.906;8.376;2023-01-04T09:43:07;1.20;;;1.10;;
19111;SDS011;9688;51.906;8.376;2023-01-04T09:46:05;0.80;;;0.80;;
19111;SDS011;9688;51.906;8.376;2023-01-04T09:48:57;0.80;;;0.80;;
19111;SDS011;9688;51.906;8.376;2023-01-04T09:51:54;1.43;;;0.83;;
19111;SDS011;9688;51.906;8.376;2023-01-04T09:54:44;1.20;;;0.90;;
19111;SDS011;9688;51.906;8.376;2023-01-04T09:57:34;0.83;;;0.83;;
19111;SDS011;9688;51.906;8.376;2023-01-04T10:00:23;1.20;;;0.90;;
19111;SDS011;9688;51.906;8.376;2023-01-04T10:03:14;1.10;;;1.10;;
19111;SDS011;9688;51.906;8.376;2023-01-04T10:06:03;1.50;;;1.10;;
19111;SDS011;9688;51.906;8.376;2023-01-04T10:08:52;1.57;;;1.13;;
19111;SDS011;9688;51.906;8.376;2023-01-04T10:11:49;1.00;;;1.00;;
19111;SDS011;9688;51.906;8.376;2023-01-04T10:14:49;1.60;;;1.20;;
19111;SDS011;9688;51.906;8.376;2023-01-04T10:17:46;1.30;;;1.20;;
19111;SDS011;9688;51.906;8.376;2023-01-04T10:20:50;1.10;;;1.00;;
19111;SDS011;9688;51.906;8.376;2023-01-04T10:23:46;1.30;;;1.20;;
19111;SDS011;9688;51.906;8.376;2023-01-04T10:26:43;1.33;;;1.27;;
19111;SDS011;9688;51.906;8.376;2023-01-04T10:29:42;1.63;;;1.00;;
19111;SDS011;9688;51.906;8.376;2023-01-04T10:32:38;1.10;;;1.10;;
19111;SDS011;9688;51.906;8.376;2023-01-04T10:35:28;1.30;;;1.20;;
19111;SDS011;9688;51.906;8.376;2023-01-04T10:38:19;1.23;;;1.23;;
19111;SDS011;9688;51.906;8.376;2023-01-04T10:41:09;0.90;;;0.90;;
19111;SDS011;9688;51.906;8.376;2023-01-04T10:44:01;0.90;;;0.90;;
19111;SDS011;9688;51.906;8.376;2023-01-04T10:46:56;2.27;;;1.30;;
19111;SDS011;9688;51.906;8.376;2023-01-04T10:49:48;1.20;;;1.10;;
19111;SDS011;9688;51.906;8.376;2023-01-04T10:52:39;1.20;;;1.20;;
19111;SDS011;9688;51.906;8.376;2023-01-04T10:55:35;4.60;;;1.80;;
19111;SDS011;9688;51.906;8.376;2023-01-04T10:58:28;1.30;;;1.30;;
19111;SDS011;9688;51.906;8.376;2023-01-04T11:01:21;1.20;;;1.20;;
19111;SDS011;9688;51.906;8.376;2023-01-04T11:04:12;1.30;;;1.30;;
19111;SDS011;9688;51.906;8.376;2023-01-04T11:07:05;1.93;;;1.30;;
19111;SDS011;9688;51.906;8.376;2023-01-04T11:09:56;4.13;;;1.30;;
19111;SDS011;9688;51.906;8.376;2023-01-04T11:12:51;1.57;;;1.50;;
19111;SDS011;9688;51.906;8.376;2023-01-04T11:15:39;1.30;;;1.30;;
19111;SDS011;9688;51.906;8.376;2023-01-04T11:18:26;1.60;;;1.50;;
19111;SDS011;9688;51.906;8.376;2023-01-04T11:21:13;1.60;;;1.60;;
19111;SDS011;9688;51.906;8.376;2023-01-04T11:24:03;3.30;;;1.80;;
19111;SDS011;9688;51.906;8.376;2023-01-04T11:26:52;1.20;;;1.20;;
19111;SDS011;9688;51.906;8.376;2023-01-04T11:29:41;1.50;;;1.40;;
19111;SDS011;9688;51.906;8.376;2023-01-04T11:32:34;1.50;;;1.40;;
19111;SDS011;9688;51.906;8.376;2023-01-04T11:35:36;2.47;;;2.37;;
19111;SDS011;9688;51.906;8.376;2023-01-04T11:38:25;2.00;;;1.70;;
19111;SDS011;9688;51.906;8.376;2023-01-04T11:41:14;1.60;;;1.50;;
19111;SDS011;9688;51.906;8.376;2023-01-04T11:44:02;1.57;;;1.50;;
19111;SDS011;9688;51.906;8.376;2023-01-04T11:47:07;2.20;;;1.63;;
19111;SDS011;9688;51.906;8.376;2023-01-04T11:50:07;1.70;;;1.60;;
19111;SDS011;9688;51.906;8.376;2023-01-04T11:53:27;1.40;;;1.40;;
19111;SDS011;9688;51.906;8.376;2023-01-04T11:56:20;1.50;;;1.40;;
19111;SDS011;9688;51.906;8.376;2023-01-04T11:59:11;2.00;;;1.80;;
19111;SDS011;9688;51.906;8.376;2023-01-04T12:02:23;1.73;;;1.60;;
19111;SDS011;9688;51.906;8.376;2023-01-04T12:05:15;1.30;;;1.30;;
19111;SDS011;9688;51.906;8.376;2023-01-04T12:08:05;1.30;;;1.30;;
19111;SDS011;9688;51.906;8.376;2023-01-04T12:10:51;1.33;;;1.23;;
19111;SDS011;9688;51.906;8.376;2023-01-04T12:13:37;1.53;;;1.40;;
19111;SDS011;9688;51.906;8.376;2023-01-04T12:19:39;1.40;;;1.30;;
19111;SDS011;9688;51.906;8.376;2023-01-04T12:22:30;1.17;;;1.17;;
19111;SDS011;9688;51.906;8.376;2023-01-04T12:25:22;2.13;;;1.10;;
19111;SDS011;9688;51.906;8.376;2023-01-04T12:28:30;1.30;;;1.20;;
19111;SDS011;9688;51.906;8.376;2023-01-04T12:31:25;1.17;;;1.17;;
19111;SDS011;9688;51.906;8.376;2023-01-04T12:37:43;2.33;;;2.23;;
19111;SDS011;9688;51.906;8.376;2023-01-04T12:40:50;2.30;;;2.10;;
19111;SDS011;9688;51.906;8.376;2023-01-04T12:43:37;1.50;;;1.50;;
19111;SDS011;9688;51.906;8.376;2023-01-04T12:46:36;1.63;;;1.53;;
19111;SDS011;9688;51.906;8.376;2023-01-04T12:49:47;1.60;;;1.50;;
19111;SDS011;9688;51.906;8.376;2023-01-04T12:52:42;1.73;;;1.70;;
19111;SDS011;9688;51.906;8.376;2023-01-04T13:02:07;1.77;;;1.67;;
19111;SDS011;9688;51.906;8.376;2023-01-04T13:05:03;1.60;;;1.50;;
19111;SDS011;9688;51.906;8.376;2023-01-04T13:08:21;2.47;;;2.37;;
19111;SDS011;9688;51.906;8.376;2023-01-04T13:11:14;4.20;;;2.23;;
19111;SDS011;9688;51.906;8.376;2023-01-04T13:14:12;1.53;;;1.50;;
19111;SDS011;9688;51.906;8.376;2023-01-04T13:17:07;1.40;;;1.40;;
19111;SDS011;9688;51.906;8.376;2023-01-04T13:19:59;2.33;;;1.90;;
19111;SDS011;9688;51.906;8.376;2023-01-04T13:23:01;3.20;;;1.40;;
19111;SDS011;9688;51.906;8.376;2023-01-04T13:25:48;1.43;;;1.43;;
19111;SDS011;9688;51.906;8.376;2023-01-04T13:28:33;1.70;;;1.60;;
19111;SDS011;9688;51.906;8.376;2023-01-04T13:31:20;1.50;;;1.40;;
19111;SDS011;9688;51.906;8.376;2023-01-04T13:34:10;2.70;;;1.50;;
19111;SDS011;9688;51.906;8.376;2023-01-04T13:37:07;1.33;;;1.30;;
19111;SDS011;9688;51.906;8.376;2023-01-04T13:40:13;1.50;;;1.40;;
19111;SDS011;9688;51.906;8.376;2023-01-04T13:43:11;1.67;;;1.60;;
19111;SDS011;9688;51.906;8.376;2023-01-04T13:46:12;1.90;;;1.80;;
19111;SDS011;9688;51.906;8.376;2023-01-04T13:49:01;1.70;;;1.60;;
19111;SDS011;9688;51.906;8.376;2023-01-04T13:51:47;1.80;;;1.40;;
19111;SDS011;9688;51.906;8.376;2023-01-04T13:54:35;1.77;;;1.50;;
19111;SDS011;9688;51.906;8.376;2023-01-04T13:57:24;1.70;;;1.70;;
19111;SDS011;9688;51.906;8.376;2023-01-04T14:03:02;1.53;;;1.43;;
19111;SDS011;9688;51.906;8.376;2023-01-04T14:05:59;1.50;;;1.50;;
19111;SDS011;9688;51.906;8.376;2023-01-04T14:09:01;1.70;;;1.70;;
19111;SDS011;9688;51.906;8.376;2023-01-04T14:11:51;1.70;;;1.60;;
19111;SDS011;9688;51.906;8.376;2023-01-04T14:14:47;1.80;;;1.63;;
19111;SDS011;9688;51.906;8.376;2023-01-04T14:17:45;1.60;;;1.50;;
19111;SDS011;9688;51.906;8.376;2023-01-04T14:20:35;1.83;;;1.40;;
19111;SDS011;9688;51.906;8.376;2023-01-04T14:23:25;1.83;;;1.73;;
19111;SDS011;9688;51.906;8.376;2023-01-04T14:26:30;1.93;;;1.80;;
19111;SDS011;9688;51.906;8.376;2023-01-04T14:29:21;2.43;;;2.23;;
19111;SDS011;9688;51.906;8.376;2023-01-04T14:32:07;1.90;;;1.80;;
19111;SDS011;9688;51.906;8.376;2023-01-04T14:34:53;1.70;;;1.60;;
19111;SDS011;9688;51.906;8.376;2023-01-04T14:37:41;2.40;;;2.20;;
19111;SDS011;9688;51.906;8.376;2023-01-04T14:40:28;2.20;;;1.80;;
19111;SDS011;9688;51.906;8.376;2023-01-04T14:43:34;2.63;;;1.80;;
19111;SDS011;9688;51.906;8.376;2023-01-04T14:46:22;1.90;;;1.80;;
19111;SDS011;9688;51.906;8.376;2023-01-04T14:49:08;2.03;;;1.93;;
19111;SDS011;9688;51.906;8.376;2023-01-04T14:51:55;2.13;;;1.90;;
19111;SDS011;9688;51.906;8.376;2023-01-04T14:54:43;2.40;;;1.90;;
19111;SDS011;9688;51.906;8.376;2023-01-04T14:57:31;2.40;;;2.10;;
19111;SDS011;9688;51.906;8.376;2023-01-04T15:00:18;2.90;;;1.70;;
19111;SDS011;9688;51.906;8.376;2023-01-04T15:03:05;2.90;;;1.97;;
19111;SDS011;9688;51.906;8.376;2023-01-04T15:05:55;1.80;;;1.70;;
19111;SDS011;9688;51.906;8.376;2023-01-04T15:08:41;1.90;;;1.80;;
19111;SDS011;9688;51.906;8.376;2023-01-04T15:11:27;1.50;;;1.50;;
19111;SDS011;9688;51.906;8.376;2023-01-04T15:14:15;1.90;;;1.80;;
19111;SDS011;9688;51.906;8.376;2023-01-04T15:17:02;1.83;;;1.73;;
19111;SDS011;9688;51.906;8.376;2023-01-04T15:19:52;2.17;;;1.97;;
19111;SDS011;9688;51.906;8.376;2023-01-04T15:22:41;1.97;;;1.90;;
19111;SDS011;9688;51.906;8.376;2023-01-04T15:25:26;2.33;;;2.13;;
19111;SDS011;9688;51.906;8.376;2023-01-04T15:28:12;3.70;;;2.10;;
19111;SDS011;9688;51.906;8.376;2023-01-04T15:30:59;1.97;;;1.87;;
19111;SDS011;9688;51.906;8.376;2023-01-04T15:33:45;2.47;;;1.70;;
19111;SDS011;9688;51.906;8.376;2023-01-04T15:36:32;3.00;;;2.00;;
19111;SDS011;9688;51.906;8.376;2023-01-04T15:39:17;3.50;;;2.40;;
19111;SDS011;9688;51.906;8.376;2023-01-04T15:42:03;2.50;;;2.30;;
19111;SDS011;9688;51.906;8.376;2023-01-04T15:45:07;3.33;;;2.50;;
19111;SDS011;9688;51.906;8.376;2023-01-04T15:47:53;2.83;;;2.63;;
19111;SDS011;9688;51.906;8.376;2023-01-04T15:50:45;2.80;;;2.60;;
19111;SDS011;9688;51.906;8.376;2023-01-04T15:53:33;3.00;;;2.80;;
19111;SDS011;9688;51.906;8.376;2023-01-04T15:56:20;2.63;;;2.43;;
19111;SDS011;9688;51.906;8.376;2023-01-04T15:59:08;2.43;;;2.33;;
19111;SDS011;9688;51.906;8.376;2023-01-04T16:01:56;3.30;;;2.30;;
19111;SDS011;9688;51.906;8.376;2023-01-04T16:04:42;3.13;;;2.80;;
19111;SDS011;9688;51.906;8.376;2023-01-04T16:07:30;3.60;;;3.30;;
19111;SDS011;9688;51.906;8.376;2023-01-04T16:10:17;3.43;;;3.13;;
19111;SDS011;9688;51.906;8.376;2023-01-04T16:13:04;3.50;;;3.30;;
19111;SDS011;9688;51.906;8.376;2023-01-04T16:15:50;5.47;;;3.57;;
19111;SDS011;9688;51.906;8.376;2023-01-04T16:18:35;5.03;;;3.93;;
19111;SDS011;9688;51.906;8.376;2023-01-04T16:21:22;5.07;;;4.17;;
19111;SDS011;9688;51.906;8.376;2023-01-04T16:24:10;3.43;;;3.13;;
19111;SDS011;9688;51.906;8.376;2023-01-04T16:26:58;4.63;;;3.03;;
19111;SDS011;9688;51.906;8.376;2023-01-04T16:29:44;2.90;;;2.70;;
19111;SDS011;9688;51.906;8.376;2023-01-04T16:32:32;2.70;;;2.50;;
19111;SDS011;9688;51.906;8.376;2023-01-04T16:35:24;3.67;;;2.53;;
19111;SDS011;9688;51.906;8.376;2023-01-04T16:38:09;3.03;;;2.30;;
19111;SDS011;9688;51.906;8.376;2023-01-04T16:41:00;4.10;;;2.53;;
19111;SDS011;9688;51.906;8.376;2023-01-04T16:43:50;5.77;;;2.60;;
19111;SDS011;9688;51.906;8.376;2023-01-04T16:46:38;4.30;;;2.20;;
19111;SDS011;9688;51.906;8.376;2023-01-04T16:49:26;7.37;;;2.60;;
19111;SDS011;9688;51.906;8.376;2023-01-04T16:52:12;4.13;;;2.07;;
19111;SDS011;9688;51.906;8.376;2023-01-04T16:54:58;5.40;;;2.10;;
19111;SDS011;9688;51.906;8.376;2023-01-04T16:57:43;6.43;;;3.53;;
19111;SDS011;9688;51.906;8.376;2023-01-04T17:00:31;4.43;;;1.90;;
19111;SDS011;9688;51.906;8.376;2023-01-04T17:03:19;2.20;;;2.10;;
19111;SDS011;9688;51.906;8.376;2023-01-04T17:06:07;4.77;;;2.40;;
19111;SDS011;9688;51.906;8.376;2023-01-04T17:08:57;4.60;;;2.10;;
19111;SDS011;9688;51.906;8.376;2023-01-04T17:11:44;5.00;;;2.30;;
19111;SDS011;9688;51.906;8.376;2023-01-04T17:14:42;9.27;;;2.50;;
19111;SDS011;9688;51.906;8.376;2023-01-04T17:17:30;5.83;;;2.50;;
19111;SDS011;9688;51.906;8.376;2023-01-04T17:20:18;6.47;;;2.97;;
19111;SDS011;9688;51.906;8.376;2023-01-04T17:23:05;3.73;;;2.50;;
19111;SDS011;9688;51.906;8.376;2023-01-04T17:25:51;5.17;;;2.57;;
19111;SDS011;9688;51.906;8.376;2023-01-04T17:28:37;7.30;;;2.70;;
19111;SDS011;9688;51.906;8.376;2023-01-04T17:31:25;6.10;;;3.30;;
19111;SDS011;9688;51.906;8.376;2023-01-04T17:34:14;3.87;;;2.70;;
19111;SDS011;9688;51.906;8.376;2023-01-04T17:37:01;11.17;;;3.60;;
19111;SDS011;9688;51.906;8.376;2023-01-04T17:39:47;6.60;;;3.43;;
19111;SDS011;9688;51.906;8.376;2023-01-04T17:42:32;4.40;;;3.10;;